sensor_id;sensor_type;location;lat;lon;timestamp;P1;durP1;ratioP1;P2;durP2;ratioP2
43124;SDS011;49182;50.788;7.318;2023-04-03T00:00:28;5.45;;;1.60;;
43124;SDS011;49182;50.788;7.318;2023-04-03T00:02:55;3.75;;;1.80;;
43124;SDS011;49182;50.788;7.318;2023-04-03T00:05:22;4.38;;;1.50;;
43124;SDS011;49182;50.788;7.318;2023-04-03T00:07:48;3.95;;;1.60;;
43124;SDS011;49182;50.788;7.318;2023-04-03T00:10:19;5.80;;;1.77;;
43124;SDS011;49182;50.788;7.318;2023-04-03T00:12:45;3.67;;;1.40;;
43124;SDS011;49182;50.788;7.318;2023-04-03T00:15:12;5.32;;;1.80;;
43124;SDS011;49182;50.788;7.318;2023-04-03T00:17:38;3.13;;;1.48;;
43124;SDS011;49182;50.788;7.318;2023-04-03T00:20:05;4.38;;;1.70;;
43124;SDS011;49182;50.788;7.318;2023-04-03T00:22:33;3.55;;;1.40;;
43124;SDS011;49182;50.788;7.318;2023-04-03T00:24:59;2.83;;;1.40;;
43124;SDS011;49182;50.788;7.318;2023-04-03T00:27:27;3.97;;;1.48;;
43124;SDS011;49182;50.788;7.318;2023-04-03T00:29:54;4.35;;;1.45;;
43124;SDS011;49182;50.788;7.318;2023-04-03T00:32:21;4.38;;;1.52;;
43124;SDS011;49182;50.788;7.318;2023-04-03T00:34:47;4.03;;;1.80;;
43124;SDS011;49182;50.788;7.318;2023-04-03T00:37:14;5.60;;;1.52;;
43124;SDS011;49182;50.788;7.318;2023-04-03T00:39:43;5.68;;;1.63;;
43124;SDS011;49182;50.788;7.318;2023-04-03T00:42:10;3.85;;;1.77;;
43124;SDS011;49182;50.788;7.318;2023-04-03T00:47:42;5.57;;;1.63;;
43124;SDS011;49182;50.788;7.318;2023-04-03T00:50:09;4.47;;;2.20;;
43124;SDS011;49182;50.788;7.318;2023-04-03T00:52:36;4.18;;;1.70;;
43124;SDS011;49182;50.788;7.318;2023-04-03T00:55:05;4.78;;;1.92;;
43124;SDS011;49182;50.788;7.318;2023-04-03T00:57:35;6.85;;;1.95;;
43124;SDS011;49182;50.788;7.318;2023-04-03T01:00:03;6.50;;;1.92;;
43124;SDS011;49182;50.788;7.318;2023-04-03T01:02:32;5.53;;;2.15;;
43124;SDS011;49182;50.788;7.318;2023-04-03T01:05:01;5.50;;;1.83;;
43124;SDS011;49182;50.788;7.318;2023-04-03T01:07:29;4.78;;;2.00;;
43124;SDS011;49182;50.788;7.318;2023-04-03T01:09:57;6.60;;;1.80;;
43124;SDS011;49182;50.788;7.318;2023-04-03T01:12:26;7.18;;;1.85;;
43124;SDS011;49182;50.788;7.318;2023-04-03T01:14:54;5.05;;;2.00;;
43124;SDS011;49182;50.788;7.318;2023-04-03T01:17:26;4.32;;;1.77;;
43124;SDS011;49182;50.788;7.318;2023-04-03T01:19:57;5.22;;;1.85;;
43124;SDS011;49182;50.788;7.318;2023-04-03T01:22:46;3.85;;;1.70;;
43124;SDS011;49182;50.788;7.318;2023-04-03T01:25:22;4.07;;;1.88;;
43124;SDS011;49182;50.788;7.318;2023-04-03T01:27:50;4.22;;;1.88;;
43124;SDS011;49182;50.788;7.318;2023-04-03T01:30:18;4.88;;;2.10;;
43124;SDS011;49182;50.788;7.318;2023-04-03T01:32:47;3.97;;;1.67;;
43124;SDS011;49182;50.788;7.318;2023-04-03T01:35:14;4.80;;;2.05;;
43124;SDS011;49182;50.788;7.318;2023-04-03T01:37:41;4.03;;;1.88;;
43124;SDS011;49182;50.788;7.318;2023-04-03T01:40:09;5.50;;;1.67;;
43124;SDS011;49182;50.788;7.318;2023-04-03T01:42:36;5.63;;;1.80;;
43124;SDS011;49182;50.788;7.318;2023-04-03T01:45:02;4.13;;;1.80;;
43124;SDS011;49182;50.788;7.318;2023-04-03T01:47:30;9.15;;;2.30;;
43124;SDS011;49182;50.788;7.318;2023-04-03T01:49:58;5.20;;;2.15;;
43124;SDS011;49182;50.788;7.318;2023-04-03T01:52:25;5.63;;;2.88;;
43124;SDS011;49182;50.788;7.318;2023-04-03T01:54:52;4.25;;;1.90;;
43124;SDS011;49182;50.788;7.318;2023-04-03T01:57:18;4.30;;;1.92;;
43124;SDS011;49182;50.788;7.318;2023-04-03T01:59:45;4.22;;;2.08;;
43124;SDS011;49182;50.788;7.318;2023-04-03T02:02:12;5.15;;;1.88;;
43124;SDS011;49182;50.788;7.318;2023-04-03T02:04:38;3.80;;;1.70;;
43124;SDS011;49182;50.788;7.318;2023-04-03T02:07:07;4.85;;;2.00;;
43124;SDS011;49182;50.788;7.318;2023-04-03T02:09:33;3.47;;;1.58;;
43124;SDS011;49182;50.788;7.318;2023-04-03T02:12:00;6.45;;;1.83;;
43124;SDS011;49182;50.788;7.318;2023-04-03T02:14:29;6.20;;;2.10;;
43124;SDS011;49182;50.788;7.318;2023-04-03T02:16:56;4.10;;;1.80;;
43124;SDS011;49182;50.788;7.318;2023-04-03T02:19:23;6.68;;;2.40;;
43124;SDS011;49182;50.788;7.318;2023-04-03T02:21:50;6.20;;;2.08;;
43124;SDS011;49182;50.788;7.318;2023-04-03T02:24:18;4.38;;;2.03;;
43124;SDS011;49182;50.788;7.318;2023-04-03T02:26:45;4.97;;;1.90;;
43124;SDS011;49182;50.788;7.318;2023-04-03T02:29:12;5.53;;;2.10;;
43124;SDS011;49182;50.788;7.318;2023-04-03T02:31:38;5.22;;;2.10;;
43124;SDS011;49182;50.788;7.318;2023-04-03T02:34:05;4.30;;;2.00;;
43124;SDS011;49182;50.788;7.318;2023-04-03T02:36:34;5.90;;;2.30;;
43124;SDS011;49182;50.788;7.318;2023-04-03T02:39:04;5.07;;;2.33;;
43124;SDS011;49182;50.788;7.318;2023-04-03T02:41:32;4.82;;;1.88;;
43124;SDS011;49182;50.788;7.318;2023-04-03T02:43:59;4.55;;;2.00;;
43124;SDS011;49182;50.788;7.318;2023-04-03T02:46:26;5.65;;;2.15;;
43124;SDS011;49182;50.788;7.318;2023-04-03T02:48:53;6.95;;;2.22;;
43124;SDS011;49182;50.788;7.318;2023-04-03T02:51:20;5.63;;;2.10;;
43124;SDS011;49182;50.788;7.318;2023-04-03T02:53:47;5.50;;;2.20;;
43124;SDS011;49182;50.788;7.318;2023-04-03T02:56:18;4.30;;;2.00;;
43124;SDS011;49182;50.788;7.318;2023-04-03T02:58:47;6.10;;;2.15;;
43124;SDS011;49182;50.788;7.318;2023-04-03T03:01:15;5.15;;;2.30;;
43124;SDS011;49182;50.788;7.318;2023-04-03T03:03:41;7.22;;;2.47;;
43124;SDS011;49182;50.788;7.318;2023-04-03T03:06:09;4.43;;;1.95;;
43124;SDS011;49182;50.788;7.318;2023-04-03T03:08:39;6.38;;;2.70;;
43124;SDS011;49182;50.788;7.318;2023-04-03T03:11:06;4.95;;;2.10;;
43124;SDS011;49182;50.788;7.318;2023-04-03T03:13:33;7.00;;;2.40;;
43124;SDS011;49182;50.788;7.318;2023-04-03T03:16:01;5.45;;;1.98;;
43124;SDS011;49182;50.788;7.318;2023-04-03T03:18:29;5.35;;;2.40;;
43124;SDS011;49182;50.788;7.318;2023-04-03T03:20:57;5.65;;;2.55;;
43124;SDS011;49182;50.788;7.318;2023-04-03T03:23:26;5.82;;;2.22;;
43124;SDS011;49182;50.788;7.318;2023-04-03T03:25:54;8.30;;;2.45;;
43124;SDS011;49182;50.788;7.318;2023-04-03T03:28:22;7.38;;;2.53;;
43124;SDS011;49182;50.788;7.318;2023-04-03T03:30:48;5.68;;;2.28;;
43124;SDS011;49182;50.788;7.318;2023-04-03T03:33:18;7.45;;;2.22;;
43124;SDS011;49182;50.788;7.318;2023-04-03T03:35:45;4.07;;;2.45;;
43124;SDS011;49182;50.788;7.318;2023-04-03T03:38:11;6.63;;;2.10;;
43124;SDS011;49182;50.788;7.318;2023-04-03T03:40:38;6.10;;;2.22;;
43124;SDS011;49182;50.788;7.318;2023-04-03T03:43:05;6.57;;;2.22;;
43124;SDS011;49182;50.788;7.318;2023-04-03T03:45:32;7.20;;;2.85;;
43124;SDS011;49182;50.788;7.318;2023-04-03T03:48:00;5.00;;;2.15;;
43124;SDS011;49182;50.788;7.318;2023-04-03T03:50:29;4.28;;;2.33;;
43124;SDS011;49182;50.788;7.318;2023-04-03T03:52:55;4.25;;;2.20;;
43124;SDS011;49182;50.788;7.318;2023-04-03T03:55:23;6.15;;;2.85;;
43124;SDS011;49182;50.788;7.318;2023-04-03T03:57:53;7.13;;;2.75;;
43124;SDS011;49182;50.788;7.318;2023-04-03T04:00:20;5.85;;;2.33;;
43124;SDS011;49182;50.788;7.318;2023-04-03T04:02:52;4.70;;;2.53;;
43124;SDS011;49182;50.788;7.318;2023-04-03T04:05:22;6.75;;;2.30;;
43124;SDS011;49182;50.788;7.318;2023-04-03T04:07:50;5.03;;;2.35;;
43124;SDS011;49182;50.788;7.318;2023-04-03T04:10:17;4.72;;;2.40;;
43124;SDS011;49182;50.788;7.318;2023-04-03T04:12:45;5.22;;;2.45;;
43124;SDS011;49182;50.788;7.318;2023-04-03T04:15:12;5.78;;;2.30;;
43124;SDS011;49182;50.788;7.318;2023-04-03T04:17:39;7.28;;;2.60;;
43124;SDS011;49182;50.788;7.318;2023-04-03T04:20:10;4.93;;;2.55;;
43124;SDS011;49182;50.788;7.318;2023-04-03T04:22:38;5.10;;;2.60;;
43124;SDS011;49182;50.788;7.318;2023-04-03T04:25:07;5.72;;;2.30;;
43124;SDS011;49182;50.788;7.318;2023-04-03T04:27:35;6.07;;;2.53;;
43124;SDS011;49182;50.788;7.318;2023-04-03T04:30:03;6.72;;;2.60;;
43124;SDS011;49182;50.788;7.318;2023-04-03T04:32:31;7.03;;;2.55;;
43124;SDS011;49182;50.788;7.318;2023-04-03T04:34:58;6.55;;;2.42;;
43124;SDS011;49182;50.788;7.318;2023-04-03T04:37:26;5.65;;;2.40;;
43124;SDS011;49182;50.788;7.318;2023-04-03T04:39:53;6.82;;;2.75;;
43124;SDS011;49182;50.788;7.318;2023-04-03T04:42:21;4.38;;;2.25;;
43124;SDS011;49182;50.788;7.318;2023-04-03T04:44:49;6.80;;;2.63;;
43124;SDS011;49182;50.788;7.318;2023-04-03T04:47:16;8.15;;;2.60;;
43124;SDS011;49182;50.788;7.318;2023-04-03T04:49:43;7.05;;;2.63;;
43124;SDS011;49182;50.788;7.318;2023-04-03T04:52:10;8.45;;;2.63;;
43124;SDS011;49182;50.788;7.318;2023-04-03T04:54:39;6.68;;;2.58;;
43124;SDS011;49182;50.788;7.318;2023-04-03T04:57:06;6.25;;;3.13;;
43124;SDS011;49182;50.788;7.318;2023-04-03T04:59:34;10.02;;;2.97;;
43124;SDS011;49182;50.788;7.318;2023-04-03T05:02:01;7.03;;;3.25;;
43124;SDS011;49182;50.788;7.318;2023-04-03T05:04:29;5.95;;;2.40;;
43124;SDS011;49182;50.788;7.318;2023-04-03T05:07:02;5.32;;;2.60;;
43124;SDS011;49182;50.788;7.318;2023-04-03T05:09:32;7.90;;;2.97;;
43124;SDS011;49182;50.788;7.318;2023-04-03T05:12:00;5.80;;;2.70;;
43124;SDS011;49182;50.788;7.318;2023-04-03T05:14:30;4.82;;;2.75;;
43124;SDS011;49182;50.788;7.318;2023-04-03T05:17:03;7.80;;;2.83;;
43124;SDS011;49182;50.788;7.318;2023-04-03T05:19:33;7.67;;;2.57;;
43124;SDS011;49182;50.788;7.318;2023-04-03T05:22:01;5.45;;;2.85;;
43124;SDS011;49182;50.788;7.318;2023-04-03T05:24:29;5.88;;;2.45;;
43124;SDS011;49182;50.788;7.318;2023-04-03T05:26:56;6.55;;;2.97;;
43124;SDS011;49182;50.788;7.318;2023-04-03T05:29:22;7.97;;;3.85;;
43124;SDS011;49182;50.788;7.318;2023-04-03T05:31:49;5.65;;;2.53;;
43124;SDS011;49182;50.788;7.318;2023-04-03T05:34:17;6.40;;;2.70;;
43124;SDS011;49182;50.788;7.318;2023-04-03T05:36:47;5.72;;;2.33;;
43124;SDS011;49182;50.788;7.318;2023-04-03T05:39:14;6.07;;;3.00;;
43124;SDS011;49182;50.788;7.318;2023-04-03T05:41:43;6.88;;;3.55;;
43124;SDS011;49182;50.788;7.318;2023-04-03T05:44:10;8.02;;;2.97;;
43124;SDS011;49182;50.788;7.318;2023-04-03T05:46:37;6.20;;;3.17;;
43124;SDS011;49182;50.788;7.318;2023-04-03T05:49:07;6.22;;;2.80;;
43124;SDS011;49182;50.788;7.318;2023-04-03T05:51:37;5.55;;;2.70;;
43124;SDS011;49182;50.788;7.318;2023-04-03T05:54:16;5.68;;;2.75;;
43124;SDS011;49182;50.788;7.318;2023-04-03T05:56:46;7.13;;;2.70;;
43124;SDS011;49182;50.788;7.318;2023-04-03T05:59:13;7.80;;;2.58;;
43124;SDS011;49182;50.788;7.318;2023-04-03T06:01:39;6.50;;;2.88;;
43124;SDS011;49182;50.788;7.318;2023-04-03T06:04:06;8.40;;;2.67;;
43124;SDS011;49182;50.788;7.318;2023-04-03T06:06:44;6.38;;;2.58;;
43124;SDS011;49182;50.788;7.318;2023-04-03T06:09:11;7.85;;;3.00;;
43124;SDS011;49182;50.788;7.318;2023-04-03T06:11:38;7.03;;;2.45;;
43124;SDS011;49182;50.788;7.318;2023-04-03T06:14:05;5.80;;;2.55;;
43124;SDS011;49182;50.788;7.318;2023-04-03T06:16:32;8.98;;;3.13;;
43124;SDS011;49182;50.788;7.318;2023-04-03T06:18:58;8.73;;;2.80;;
43124;SDS011;49182;50.788;7.318;2023-04-03T06:21:25;5.40;;;2.42;;
43124;SDS011;49182;50.788;7.318;2023-04-03T06:23:53;4.85;;;2.22;;
43124;SDS011;49182;50.788;7.318;2023-04-03T06:26:20;8.82;;;3.13;;
43124;SDS011;49182;50.788;7.318;2023-04-03T06:28:46;6.72;;;2.45;;
43124;SDS011;49182;50.788;7.318;2023-04-03T06:31:13;6.50;;;2.60;;
43124;SDS011;49182;50.788;7.318;2023-04-03T06:33:40;6.28;;;2.58;;
43124;SDS011;49182;50.788;7.318;2023-04-03T06:36:07;4.32;;;2.20;;
43124;SDS011;49182;50.788;7.318;2023-04-03T06:38:36;4.90;;;2.15;;
43124;SDS011;49182;50.788;7.318;2023-04-03T06:41:04;6.90;;;2.28;;
43124;SDS011;49182;50.788;7.318;2023-04-03T06:43:31;6.53;;;2.53;;
43124;SDS011;49182;50.788;7.318;2023-04-03T06:45:59;6.18;;;2.25;;
43124;SDS011;49182;50.788;7.318;2023-04-03T06:48:26;7.65;;;2.55;;
43124;SDS011;49182;50.788;7.318;2023-04-03T06:50:53;5.28;;;2.03;;
43124;SDS011;49182;50.788;7.318;2023-04-03T06:53:19;6.18;;;2.03;;
43124;SDS011;49182;50.788;7.318;2023-04-03T06:55:46;6.97;;;2.30;;
43124;SDS011;49182;50.788;7.318;2023-04-03T06:58:14;5.22;;;2.20;;
43124;SDS011;49182;50.788;7.318;2023-04-03T07:00:41;4.63;;;1.73;;
43124;SDS011;49182;50.788;7.318;2023-04-03T07:03:07;5.53;;;1.67;;
43124;SDS011;49182;50.788;7.318;2023-04-03T07:05:34;4.95;;;1.83;;
43124;SDS011;49182;50.788;7.318;2023-04-03T07:08:01;6.30;;;1.95;;
43124;SDS011;49182;50.788;7.318;2023-04-03T07:10:27;3.80;;;1.45;;
43124;SDS011;49182;50.788;7.318;2023-04-03T07:12:54;7.00;;;1.75;;
43124;SDS011;49182;50.788;7.318;2023-04-03T07:15:22;4.47;;;1.25;;
43124;SDS011;49182;50.788;7.318;2023-04-03T07:17:48;6.65;;;1.95;;
43124;SDS011;49182;50.788;7.318;2023-04-03T07:20:15;7.13;;;1.27;;
43124;SDS011;49182;50.788;7.318;2023-04-03T07:22:42;6.88;;;1.40;;
43124;SDS011;49182;50.788;7.318;2023-04-03T07:25:08;4.13;;;1.25;;
43124;SDS011;49182;50.788;7.318;2023-04-03T07:27:35;4.95;;;1.80;;
43124;SDS011;49182;50.788;7.318;2023-04-03T07:30:02;3.22;;;1.30;;
43124;SDS011;49182;50.788;7.318;2023-04-03T07:32:31;6.85;;;1.75;;
43124;SDS011;49182;50.788;7.318;2023-04-03T07:34:57;4.22;;;1.50;;
43124;SDS011;49182;50.788;7.318;2023-04-03T07:37:25;5.60;;;1.45;;
43124;SDS011;49182;50.788;7.318;2023-04-03T07:39:52;5.40;;;1.67;;
43124;SDS011;49182;50.788;7.318;2023-04-03T07:42:19;4.90;;;1.42;;
43124;SDS011;49182;50.788;7.318;2023-04-03T07:44:45;4.55;;;1.50;;
43124;SDS011;49182;50.788;7.318;2023-04-03T07:47:12;3.10;;;1.02;;
43124;SDS011;49182;50.788;7.318;2023-04-03T07:49:40;4.50;;;1.25;;
43124;SDS011;49182;50.788;7.318;2023-04-03T07:52:07;3.45;;;1.17;;
43124;SDS011;49182;50.788;7.318;2023-04-03T07:54:34;5.72;;;1.40;;
43124;SDS011;49182;50.788;7.318;2023-04-03T07:57:00;6.72;;;1.40;;
43124;SDS011;49182;50.788;7.318;2023-04-03T07:59:27;6.75;;;1.60;;
43124;SDS011;49182;50.788;7.318;2023-04-03T08:01:54;4.30;;;1.00;;
43124;SDS011;49182;50.788;7.318;2023-04-03T08:04:20;5.22;;;1.63;;
43124;SDS011;49182;50.788;7.318;2023-04-03T08:06:49;3.55;;;1.20;;
43124;SDS011;49182;50.788;7.318;2023-04-03T08:09:15;4.00;;;1.23;;
43124;SDS011;49182;50.788;7.318;2023-04-03T08:11:42;4.60;;;1.65;;
43124;SDS011;49182;50.788;7.318;2023-04-03T08:14:09;3.42;;;1.33;;
43124;SDS011;49182;50.788;7.318;2023-04-03T08:16:36;3.38;;;1.27;;
43124;SDS011;49182;50.788;7.318;2023-04-03T08:19:02;4.35;;;1.20;;
43124;SDS011;49182;50.788;7.318;2023-04-03T08:21:34;3.00;;;1.15;;
43124;SDS011;49182;50.788;7.318;2023-04-03T08:24:03;6.10;;;1.48;;
43124;SDS011;49182;50.788;7.318;2023-04-03T08:26:29;4.57;;;1.42;;
43124;SDS011;49182;50.788;7.318;2023-04-03T08:28:56;3.80;;;1.48;;
43124;SDS011;49182;50.788;7.318;2023-04-03T08:31:23;6.63;;;1.23;;
43124;SDS011;49182;50.788;7.318;2023-04-03T08:33:49;3.65;;;1.15;;
43124;SDS011;49182;50.788;7.318;2023-04-03T08:36:18;2.70;;;1.05;;
43124;SDS011;49182;50.788;7.318;2023-04-03T08:38:46;8.82;;;1.20;;
43124;SDS011;49182;50.788;7.318;2023-04-03T08:41:16;4.35;;;1.15;;
43124;SDS011;49182;50.788;7.318;2023-04-03T08:43:53;9.30;;;1.98;;
43124;SDS011;49182;50.788;7.318;2023-04-03T08:46:32;3.28;;;1.27;;
43124;SDS011;49182;50.788;7.318;2023-04-03T08:49:07;3.35;;;1.08;;
43124;SDS011;49182;50.788;7.318;2023-04-03T08:51:41;4.25;;;1.08;;
43124;SDS011;49182;50.788;7.318;2023-04-03T08:54:15;7.45;;;1.30;;
43124;SDS011;49182;50.788;7.318;2023-04-03T08:56:51;4.35;;;1.10;;
43124;SDS011;49182;50.788;7.318;2023-04-03T08:59:19;5.78;;;1.13;;
43124;SDS011;49182;50.788;7.318;2023-04-03T09:01:52;3.28;;;0.93;;
43124;SDS011;49182;50.788;7.318;2023-04-03T09:04:20;3.85;;;1.20;;
43124;SDS011;49182;50.788;7.318;2023-04-03T09:06:49;4.40;;;1.10;;
43124;SDS011;49182;50.788;7.318;2023-04-03T09:11:57;3.80;;;0.98;;
43124;SDS011;49182;50.788;7.318;2023-04-03T09:14:31;2.78;;;1.00;;
43124;SDS011;49182;50.788;7.318;2023-04-03T09:17:02;3.78;;;1.10;;
43124;SDS011;49182;50.788;7.318;2023-04-03T09:19:36;4.45;;;1.10;;
43124;SDS011;49182;50.788;7.318;2023-04-03T09:24:39;4.25;;;0.90;;
43124;SDS011;49182;50.788;7.318;2023-04-03T09:27:09;4.93;;;1.05;;
43124;SDS011;49182;50.788;7.318;2023-04-03T09:29:39;3.50;;;1.10;;
43124;SDS011;49182;50.788;7.318;2023-04-03T09:32:15;4.95;;;1.20;;
43124;SDS011;49182;50.788;7.318;2023-04-03T09:34:47;2.75;;;0.88;;
43124;SDS011;49182;50.788;7.318;2023-04-03T09:37:33;4.00;;;1.15;;
43124;SDS011;49182;50.788;7.318;2023-04-03T09:40:01;2.95;;;0.98;;
43124;SDS011;49182;50.788;7.318;2023-04-03T09:42:30;3.55;;;1.08;;
43124;SDS011;49182;50.788;7.318;2023-04-03T09:44:58;2.45;;;0.93;;
43124;SDS011;49182;50.788;7.318;2023-04-03T09:47:26;3.88;;;1.05;;
43124;SDS011;49182;50.788;7.318;2023-04-03T09:50:08;3.08;;;0.90;;
43124;SDS011;49182;50.788;7.318;2023-04-03T09:52:47;5.22;;;1.00;;
43124;SDS011;49182;50.788;7.318;2023-04-03T09:55:15;5.28;;;1.10;;
43124;SDS011;49182;50.788;7.318;2023-04-03T09:57:45;3.92;;;1.10;;
43124;SDS011;49182;50.788;7.318;2023-04-03T10:00:20;3.58;;;0.90;;
43124;SDS011;49182;50.788;7.318;2023-04-03T10:02:50;4.35;;;1.10;;
43124;SDS011;49182;50.788;7.318;2023-04-03T10:05:26;3.58;;;1.05;;
43124;SDS011;49182;50.788;7.318;2023-04-03T10:08:07;4.85;;;0.98;;
43124;SDS011;49182;50.788;7.318;2023-04-03T10:10:36;4.50;;;0.82;;
43124;SDS011;49182;50.788;7.318;2023-04-03T10:13:06;2.25;;;0.85;;
43124;SDS011;49182;50.788;7.318;2023-04-03T10:15:39;4.80;;;1.10;;
43124;SDS011;49182;50.788;7.318;2023-04-03T10:18:15;3.03;;;0.90;;
43124;SDS011;49182;50.788;7.318;2023-04-03T10:20:56;2.40;;;0.80;;
43124;SDS011;49182;50.788;7.318;2023-04-03T10:23:30;2.10;;;0.70;;
43124;SDS011;49182;50.788;7.318;2023-04-03T10:26:07;4.38;;;1.25;;
43124;SDS011;49182;50.788;7.318;2023-04-03T10:28:43;3.55;;;0.98;;
43124;SDS011;49182;50.788;7.318;2023-04-03T10:31:15;3.03;;;0.82;;
43124;SDS011;49182;50.788;7.318;2023-04-03T10:33:51;4.95;;;1.48;;
43124;SDS011;49182;50.788;7.318;2023-04-03T10:36:28;3.05;;;0.80;;
43124;SDS011;49182;50.788;7.318;2023-04-03T10:39:04;3.10;;;0.93;;
43124;SDS011;49182;50.788;7.318;2023-04-03T10:41:51;2.28;;;0.73;;
43124;SDS011;49182;50.788;7.318;2023-04-03T10:44:47;2.92;;;1.10;;
43124;SDS011;49182;50.788;7.318;2023-04-03T10:47:24;5.63;;;0.82;;
43124;SDS011;49182;50.788;7.318;2023-04-03T10:50:01;3.85;;;1.48;;
43124;SDS011;49182;50.788;7.318;2023-04-03T10:52:36;2.35;;;0.68;;
43124;SDS011;49182;50.788;7.318;2023-04-03T10:55:14;4.38;;;0.93;;
43124;SDS011;49182;50.788;7.318;2023-04-03T10:57:50;6.50;;;0.95;;
43124;SDS011;49182;50.788;7.318;2023-04-03T11:00:21;5.38;;;1.17;;
43124;SDS011;49182;50.788;7.318;2023-04-03T11:02:57;4.75;;;0.85;;
43124;SDS011;49182;50.788;7.318;2023-04-03T11:05:31;3.78;;;0.90;;
43124;SDS011;49182;50.788;7.318;2023-04-03T11:08:05;1.92;;;0.70;;
43124;SDS011;49182;50.788;7.318;2023-04-03T11:10:39;2.30;;;0.90;;
43124;SDS011;49182;50.788;7.318;2023-04-03T11:13:10;3.53;;;0.80;;
43124;SDS011;49182;50.788;7.318;2023-04-03T11:15:41;2.20;;;0.70;;
43124;SDS011;49182;50.788;7.318;2023-04-03T11:18:09;5.57;;;0.90;;
43124;SDS011;49182;50.788;7.318;2023-04-03T11:20:40;2.17;;;0.82;;
43124;SDS011;49182;50.788;7.318;2023-04-03T11:23:12;2.10;;;0.73;;
43124;SDS011;49182;50.788;7.318;2023-04-03T11:25:47;1.98;;;0.70;;
43124;SDS011;49182;50.788;7.318;2023-04-03T11:28:18;3.65;;;0.70;;
43124;SDS011;49182;50.788;7.318;2023-04-03T11:30:46;2.25;;;0.73;;
43124;SDS011;49182;50.788;7.318;2023-04-03T11:33:24;2.65;;;0.80;;
43124;SDS011;49182;50.788;7.318;2023-04-03T11:35:59;1.95;;;0.77;;
43124;SDS011;49182;50.788;7.318;2023-04-03T11:38:51;3.03;;;0.90;;
43124;SDS011;49182;50.788;7.318;2023-04-03T11:41:24;3.40;;;0.75;;
43124;SDS011;49182;50.788;7.318;2023-04-03T11:43:58;5.25;;;1.00;;
43124;SDS011;49182;50.788;7.318;2023-04-03T11:58:12;2.20;;;0.70;;
43124;SDS011;49182;50.788;7.318;2023-04-03T12:00:47;2.83;;;0.80;;
43124;SDS011;49182;50.788;7.318;2023-04-03T12:12:56;3.33;;;0.75;;
43124;SDS011;49182;50.788;7.318;2023-04-03T12:21:22;3.60;;;1.00;;
43124;SDS011;49182;50.788;7.318;2023-04-03T12:23:57;3.05;;;0.80;;
43124;SDS011;49182;50.788;7.318;2023-04-03T12:26:32;2.90;;;1.00;;
43124;SDS011;49182;50.788;7.318;2023-04-03T12:29:15;3.30;;;0.95;;
43124;SDS011;49182;50.788;7.318;2023-04-03T12:31:48;4.57;;;1.52;;
43124;SDS011;49182;50.788;7.318;2023-04-03T12:34:29;2.65;;;0.82;;
43124;SDS011;49182;50.788;7.318;2023-04-03T12:37:17;3.95;;;0.90;;
43124;SDS011;49182;50.788;7.318;2023-04-03T12:40:02;5.50;;;0.80;;
43124;SDS011;49182;50.788;7.318;2023-04-03T12:42:51;3.55;;;0.90;;
43124;SDS011;49182;50.788;7.318;2023-04-03T12:45:38;2.90;;;0.90;;
43124;SDS011;49182;50.788;7.318;2023-04-03T12:48:10;2.15;;;0.90;;
43124;SDS011;49182;50.788;7.318;2023-04-03T12:50:41;3.90;;;1.10;;
43124;SDS011;49182;50.788;7.318;2023-04-03T12:53:11;3.53;;;0.85;;
43124;SDS011;49182;50.788;7.318;2023-04-03T12:55:39;3.90;;;0.90;;
43124;SDS011;49182;50.788;7.318;2023-04-03T12:58:20;3.17;;;0.90;;
43124;SDS011;49182;50.788;7.318;2023-04-03T13:00:58;3.47;;;0.90;;
43124;SDS011;49182;50.788;7.318;2023-04-03T13:03:26;2.38;;;0.90;;
43124;SDS011;49182;50.788;7.318;2023-04-03T13:05:54;4.97;;;1.17;;
43124;SDS011;49182;50.788;7.318;2023-04-03T13:08:24;3.25;;;0.85;;
43124;SDS011;49182;50.788;7.318;2023-04-03T13:10:53;1.77;;;0.68;;
43124;SDS011;49182;50.788;7.318;2023-04-03T13:13:25;3.80;;;1.00;;
43124;SDS011;49182;50.788;7.318;2023-04-03T13:15:53;3.35;;;1.25;;
43124;SDS011;49182;50.788;7.318;2023-04-03T13:18:27;5.90;;;1.17;;
43124;SDS011;49182;50.788;7.318;2023-04-03T13:20:57;3.40;;;1.17;;
43124;SDS011;49182;50.788;7.318;2023-04-03T13:23:27;1.90;;;0.85;;
43124;SDS011;49182;50.788;7.318;2023-04-03T13:25:55;3.50;;;0.90;;
43124;SDS011;49182;50.788;7.318;2023-04-03T13:28:23;4.10;;;1.00;;
43124;SDS011;49182;50.788;7.318;2023-04-03T13:30:56;5.00;;;1.02;;
43124;SDS011;49182;50.788;7.318;2023-04-03T13:33:29;6.32;;;1.05;;
43124;SDS011;49182;50.788;7.318;2023-04-03T13:36:00;3.50;;;0.98;;
43124;SDS011;49182;50.788;7.318;2023-04-03T13:38:29;4.72;;;1.40;;
43124;SDS011;49182;50.788;7.318;2023-04-03T13:40:58;2.03;;;0.88;;
43124;SDS011;49182;50.788;7.318;2023-04-03T13:43:27;3.90;;;0.90;;
43124;SDS011;49182;50.788;7.318;2023-04-03T13:45:57;3.55;;;1.10;;
43124;SDS011;49182;50.788;7.318;2023-04-03T13:48:25;3.25;;;1.00;;
43124;SDS011;49182;50.788;7.318;2023-04-03T13:50:54;4.63;;;0.90;;
43124;SDS011;49182;50.788;7.318;2023-04-03T13:53:24;2.95;;;1.10;;
43124;SDS011;49182;50.788;7.318;2023-04-03T13:55:53;2.45;;;0.80;;
43124;SDS011;49182;50.788;7.318;2023-04-03T13:58:24;3.08;;;0.95;;
43124;SDS011;49182;50.788;7.318;2023-04-03T14:00:53;2.65;;;0.98;;
43124;SDS011;49182;50.788;7.318;2023-04-03T14:03:23;3.28;;;1.08;;
43124;SDS011;49182;50.788;7.318;2023-04-03T14:05:51;3.45;;;1.20;;
43124;SDS011;49182;50.788;7.318;2023-04-03T14:08:19;3.00;;;1.00;;
43124;SDS011;49182;50.788;7.318;2023-04-03T14:10:57;6.57;;;2.63;;
43124;SDS011;49182;50.788;7.318;2023-04-03T14:13:24;2.80;;;0.88;;
43124;SDS011;49182;50.788;7.318;2023-04-03T14:15:52;4.15;;;1.05;;
43124;SDS011;49182;50.788;7.318;2023-04-03T14:18:23;5.25;;;1.42;;
43124;SDS011;49182;50.788;7.318;2023-04-03T14:20:50;2.80;;;1.10;;
43124;SDS011;49182;50.788;7.318;2023-04-03T14:23:16;3.45;;;1.00;;
43124;SDS011;49182;50.788;7.318;2023-04-03T14:25:43;3.30;;;0.93;;
43124;SDS011;49182;50.788;7.318;2023-04-03T14:28:14;2.55;;;1.00;;
43124;SDS011;49182;50.788;7.318;2023-04-03T14:30:43;3.20;;;1.00;;
43124;SDS011;49182;50.788;7.318;2023-04-03T14:33:14;2.92;;;1.00;;
43124;SDS011;49182;50.788;7.318;2023-04-03T14:35:42;2.97;;;0.80;;
43124;SDS011;49182;50.788;7.318;2023-04-03T14:38:13;3.08;;;0.90;;
43124;SDS011;49182;50.788;7.318;2023-04-03T14:40:48;3.38;;;0.93;;
43124;SDS011;49182;50.788;7.318;2023-04-03T14:43:15;1.88;;;0.90;;
43124;SDS011;49182;50.788;7.318;2023-04-03T14:45:41;3.72;;;1.00;;
43124;SDS011;49182;50.788;7.318;2023-04-03T14:48:09;2.60;;;1.00;;
43124;SDS011;49182;50.788;7.318;2023-04-03T14:50:44;7.07;;;1.00;;
43124;SDS011;49182;50.788;7.318;2023-04-03T14:53:30;3.30;;;0.90;;
43124;SDS011;49182;50.788;7.318;2023-04-03T14:56:05;2.92;;;0.75;;
43124;SDS011;49182;50.788;7.318;2023-04-03T14:58:38;3.60;;;0.85;;
43124;SDS011;49182;50.788;7.318;2023-04-03T15:01:04;2.67;;;0.82;;
43124;SDS011;49182;50.788;7.318;2023-04-03T15:03:32;3.67;;;0.90;;
43124;SDS011;49182;50.788;7.318;2023-04-03T15:05:59;3.33;;;1.02;;
43124;SDS011;49182;50.788;7.318;2023-04-03T15:08:26;2.28;;;0.85;;
43124;SDS011;49182;50.788;7.318;2023-04-03T15:10:54;5.25;;;0.98;;
43124;SDS011;49182;50.788;7.318;2023-04-03T15:13:21;2.70;;;0.82;;
43124;SDS011;49182;50.788;7.318;2023-04-03T15:15:48;3.15;;;0.85;;
43124;SDS011;49182;50.788;7.318;2023-04-03T15:18:17;2.85;;;0.80;;
43124;SDS011;49182;50.788;7.318;2023-04-03T15:20:47;2.80;;;0.95;;
43124;SDS011;49182;50.788;7.318;2023-04-03T15:23:14;2.70;;;0.80;;
43124;SDS011;49182;50.788;7.318;2023-04-03T15:25:42;3.38;;;0.93;;
43124;SDS011;49182;50.788;7.318;2023-04-03T15:28:10;2.03;;;0.70;;
43124;SDS011;49182;50.788;7.318;2023-04-03T15:30:43;2.85;;;1.10;;
43124;SDS011;49182;50.788;7.318;2023-04-03T15:33:10;2.20;;;0.80;;
43124;SDS011;49182;50.788;7.318;2023-04-03T15:35:37;3.70;;;1.02;;
43124;SDS011;49182;50.788;7.318;2023-04-03T15:38:05;2.35;;;0.82;;